createdAt,value
2019-03-26T00:01:12.418Z,98981.16
2019-03-26T00:03:42.632Z,98981.55
2019-03-26T00:06:13.021Z,98985.77
2019-03-26T00:08:43.252Z,98985.83
2019-03-26T00:11:13.503Z,98981.48
2019-03-26T00:13:43.819Z,98974.83
2019-03-26T00:16:14.038Z,98983.45
2019-03-26T00:18:44.297Z,98974.84
2019-03-26T00:21:14.624Z,98983.12
2019-03-26T00:23:44.833Z,98972.48
2019-03-26T00:26:15.059Z,98973.21
2019-03-26T00:28:45.340Z,98967.59
2019-03-26T00:31:15.581Z,98966.80
2019-03-26T00:33:45.836Z,98961.93
2019-03-26T00:36:16.061Z,98967.94
2019-03-26T00:38:46.408Z,98959.02
2019-03-26T00:41:16.690Z,98963.20
2019-03-26T00:43:46.948Z,98962.61
2019-03-26T00:46:17.162Z,98966.31
2019-03-26T00:48:47.393Z,98963.50
2019-03-26T00:51:17.621Z,98965.31
2019-03-26T00:53:47.872Z,98964.95
2019-03-26T00:56:18.082Z,98966.32
2019-03-26T00:58:48.320Z,98968.83
2019-03-26T01:01:18.758Z,98970.46
2019-03-26T01:03:48.988Z,98963.95
2019-03-26T01:06:19.270Z,98970.01
2019-03-26T01:08:49.617Z,98969.77
2019-03-26T01:11:19.878Z,98971.48
2019-03-26T01:13:50.096Z,98976.20
2019-03-26T01:16:20.361Z,98974.25
2019-03-26T01:18:50.612Z,98977.44
2019-03-26T01:21:20.862Z,98974.99
2019-03-26T01:23:51.097Z,98970.45
2019-03-26T01:26:21.325Z,98970.25
2019-03-26T01:28:51.559Z,98976.38
2019-03-26T01:31:21.822Z,98984.22
2019-03-26T01:33:52.053Z,98988.87
2019-03-26T01:36:22.287Z,98991.77
2019-03-26T01:38:52.504Z,98995.17
2019-03-26T01:41:22.755Z,99004.59
2019-03-26T01:43:53.042Z,99005.70
2019-03-26T01:46:23.283Z,99019.20
2019-03-26T01:48:53.508Z,99023.32
2019-03-26T01:51:23.738Z,99023.56
2019-03-26T01:53:53.996Z,99024.84
2019-03-26T01:56:24.235Z,99028.89
2019-03-26T01:58:54.488Z,99031.23
2019-03-26T02:01:24.747Z,99034.00
2019-03-26T02:03:55.000Z,99041.02
2019-03-26T02:06:25.287Z,99048.61
2019-03-26T02:08:55.535Z,99039.86
2019-03-26T02:11:25.792Z,99042.36
2019-03-26T02:13:55.826Z,99050.72
2019-03-26T02:16:25.901Z,99056.43
2019-03-26T02:18:55.995Z,99067.77
2019-03-26T02:21:26.067Z,99070.70
2019-03-26T02:23:56.128Z,99076.48
2019-03-26T02:26:26.233Z,99086.68
2019-03-26T02:28:56.362Z,99084.09
2019-03-26T02:31:26.436Z,99090.72
2019-03-26T02:33:58.407Z,99090.23
2019-03-26T02:36:28.491Z,99093.08
2019-03-26T02:38:58.621Z,99091.82
2019-03-26T02:41:28.821Z,99101.02
2019-03-26T02:43:58.894Z,99108.13
2019-03-26T02:46:28.968Z,99111.68
2019-03-26T02:48:59.082Z,99120.70
2019-03-26T02:51:29.182Z,99125.59
2019-03-26T02:53:59.254Z,99128.98
2019-03-26T02:56:29.310Z,99130.53
2019-03-26T02:58:59.418Z,99139.05
2019-03-26T03:01:29.498Z,99143.97
2019-03-26T03:03:59.569Z,99145.29
2019-03-26T03:06:29.667Z,99149.78
2019-03-26T03:08:59.765Z,99150.55
2019-03-26T03:11:29.838Z,99162.27
2019-03-26T03:13:59.903Z,99171.84
2019-03-26T03:16:29.994Z,99172.48
2019-03-26T03:19:00.097Z,99180.44
2019-03-26T03:21:30.143Z,99179.54
2019-03-26T03:24:00.219Z,99185.86
2019-03-26T03:26:30.314Z,99194.86
2019-03-26T03:29:00.421Z,99199.94
2019-03-26T03:31:30.492Z,99208.92
2019-03-26T03:34:00.561Z,99218.64
2019-03-26T03:36:30.670Z,99226.34
2019-03-26T03:39:00.774Z,99236.44
2019-03-26T03:41:30.838Z,99236.22
2019-03-26T03:44:00.928Z,99247.35
2019-03-26T03:46:31.027Z,99248.16
2019-03-26T03:49:01.139Z,99253.55
2019-03-26T03:51:31.241Z,99252.20
2019-03-26T03:54:01.322Z,99266.28
2019-03-26T03:56:31.405Z,99269.95
2019-03-26T03:59:01.483Z,99273.29
2019-03-26T04:01:31.586Z,99278.42
2019-03-26T04:04:01.664Z,99278.75
2019-03-26T04:06:31.754Z,99287.91
2019-03-26T04:09:01.833Z,99286.20
2019-03-26T04:11:31.931Z,99284.45
2019-03-26T04:14:02.195Z,99286.39
2019-03-26T04:16:32.373Z,99291.98
2019-03-26T04:19:02.453Z,99297.29
2019-03-26T04:21:32.555Z,99309.73
2019-03-26T04:24:02.608Z,99312.29
2019-03-26T04:26:32.685Z,99319.11
2019-03-26T04:29:02.785Z,99325.90
2019-03-26T04:31:32.891Z,99327.90
2019-03-26T04:34:02.975Z,99327.98
2019-03-26T04:36:33.062Z,99341.44
2019-03-26T04:39:03.902Z,99344.66
2019-03-26T04:41:34.042Z,99357.62
2019-03-26T04:44:04.135Z,99352.52
2019-03-26T04:46:34.216Z,99362.30
2019-03-26T04:49:04.315Z,99369.31
2019-03-26T04:51:34.539Z,99361.98
2019-03-26T04:54:04.646Z,99376.66
2019-03-26T04:56:34.738Z,99374.31
2019-03-26T04:59:05.084Z,99383.51
2019-03-26T05:01:35.326Z,99376.16
2019-03-26T05:04:05.470Z,99374.13
2019-03-26T05:06:38.202Z,99393.98
2019-03-26T05:09:07.636Z,99393.01
2019-03-26T05:11:37.851Z,99395.65
2019-03-26T05:14:08.049Z,99402.23
2019-03-26T05:16:38.222Z,99405.24
2019-03-26T05:19:08.314Z,99416.70
2019-03-26T05:21:38.389Z,99413.75
2019-03-26T05:24:08.544Z,99411.66
2019-03-26T05:26:38.703Z,99424.98
2019-03-26T05:29:08.763Z,99423.09
2019-03-26T05:31:38.845Z,99425.94
2019-03-26T05:34:08.935Z,99424.41
2019-03-26T05:36:50.712Z,99429.45
2019-03-26T05:39:10.891Z,99429.05
2019-03-26T05:41:40.973Z,99432.81
2019-03-26T05:44:11.047Z,99430.41
2019-03-26T05:46:41.128Z,99432.79
2019-03-26T05:49:11.200Z,99444.33
2019-03-26T05:51:41.333Z,99448.19
2019-03-26T05:54:11.401Z,99442.78
2019-03-26T05:56:41.470Z,99442.17
2019-03-26T05:59:11.567Z,99461.48
2019-03-26T06:01:41.664Z,99455.78
2019-03-26T06:04:11.772Z,99467.30
2019-03-26T06:06:41.905Z,99468.41
2019-03-26T06:09:11.994Z,99460.92
2019-03-26T06:11:42.140Z,99471.12
2019-03-26T06:14:12.279Z,99467.02
2019-03-26T06:16:42.369Z,99478.20
2019-03-26T06:19:12.501Z,99481.00
2019-03-26T06:21:42.581Z,99485.91
2019-03-26T06:24:12.648Z,99488.59
2019-03-26T06:26:42.759Z,99496.91
2019-03-26T06:29:12.840Z,99487.66
2019-03-26T06:31:42.912Z,99500.46
2019-03-26T06:34:12.983Z,99497.11
2019-03-26T06:36:43.096Z,99510.38
2019-03-26T06:39:13.260Z,99506.25
2019-03-26T06:41:43.338Z,99509.22
2019-03-26T06:44:13.425Z,99511.52
2019-03-26T06:46:43.500Z,99518.06
2019-03-26T06:49:13.592Z,99527.97
2019-03-26T06:51:43.665Z,99534.48
2019-03-26T06:54:13.740Z,99539.11
2019-03-26T06:56:43.912Z,99540.70
2019-03-26T06:59:14.008Z,99546.88
2019-03-26T07:01:44.141Z,99542.54
2019-03-26T07:04:14.210Z,99552.95
2019-03-26T07:06:44.353Z,99553.24
2019-03-26T07:09:14.446Z,99555.55
2019-03-26T07:11:44.515Z,99549.31
2019-03-26T07:14:14.618Z,99571.24
2019-03-26T07:16:44.695Z,99575.23
2019-03-26T07:19:14.884Z,99569.92
2019-03-26T07:21:49.896Z,99582.58
2019-03-26T07:24:16.846Z,99578.30
2019-03-26T07:26:46.922Z,99573.52
2019-03-26T07:29:17.004Z,99576.95
2019-03-26T07:31:47.064Z,99583.30
2019-03-26T07:34:17.248Z,99580.28
2019-03-26T07:36:47.353Z,99592.56
2019-03-26T07:39:17.507Z,99591.34
2019-03-26T07:41:47.705Z,99593.84
2019-03-26T07:44:17.791Z,99595.90
2019-03-26T07:46:47.887Z,99594.05
2019-03-26T07:49:18.039Z,99598.09
2019-03-26T07:51:48.119Z,99600.38
2019-03-26T07:54:18.202Z,99610.42
2019-03-26T07:56:48.286Z,99610.18
2019-03-26T07:59:18.372Z,99614.65
2019-03-26T08:01:48.454Z,99615.69
2019-03-26T08:04:18.583Z,99630.33
2019-03-26T08:06:48.677Z,99615.45
2019-03-26T08:09:18.795Z,99619.37
2019-03-26T08:11:48.869Z,99616.62
2019-03-26T08:14:18.954Z,99630.70
2019-03-26T08:16:49.070Z,99623.29
2019-03-26T08:19:19.124Z,99639.61
2019-03-26T08:21:49.225Z,99623.77
2019-03-26T08:24:19.448Z,99628.04
2019-03-26T08:26:51.985Z,99620.37
2019-03-26T08:29:21.551Z,99628.70
2019-03-26T08:31:51.636Z,99625.70
2019-03-26T08:34:21.837Z,99639.75
2019-03-26T08:36:51.964Z,99631.36
2019-03-26T08:39:22.054Z,99645.86
2019-03-26T08:41:52.120Z,99644.08
2019-03-26T08:44:22.232Z,99642.92
2019-03-26T08:46:52.331Z,99642.41
2019-03-26T08:49:22.419Z,99646.52
2019-03-26T08:51:52.536Z,99648.84
2019-03-26T08:54:22.632Z,99643.25
2019-03-26T08:56:52.727Z,99641.39
2019-03-26T08:59:22.830Z,99647.88
2019-03-26T09:01:52.901Z,99646.16
2019-03-26T09:04:23.060Z,99645.09
2019-03-26T09:06:53.120Z,99647.64
2019-03-26T09:09:23.205Z,99638.59
2019-03-26T09:11:53.290Z,99645.17
2019-03-26T09:14:23.386Z,99643.06
2019-03-26T09:16:53.447Z,99644.86
2019-03-26T09:19:23.573Z,99647.23
2019-03-26T09:21:53.667Z,99645.62
2019-03-26T09:24:23.741Z,99644.70
2019-03-26T09:26:53.870Z,99643.44
2019-03-26T09:29:23.965Z,99648.96
2019-03-26T09:31:54.074Z,99657.16
2019-03-26T09:34:24.201Z,99654.75
2019-03-26T09:36:54.305Z,99651.91
2019-03-26T09:39:24.372Z,99653.92
2019-03-26T09:41:54.468Z,99646.62
2019-03-26T09:44:24.595Z,99662.58
2019-03-26T09:46:54.692Z,99653.80
2019-03-26T09:49:24.762Z,99658.63
2019-03-26T09:51:54.858Z,99655.58
2019-03-26T09:54:24.910Z,99657.33
2019-03-26T09:56:55.017Z,99658.03
2019-03-26T09:59:25.202Z,99653.23
2019-03-26T10:01:55.364Z,99655.09
2019-03-26T10:04:25.431Z,99666.77
2019-03-26T10:06:55.581Z,99655.22
2019-03-26T10:09:25.692Z,99658.58
2019-03-26T10:11:55.783Z,99655.43
2019-03-26T10:14:25.859Z,99655.89
2019-03-26T10:16:55.945Z,99656.89
2019-03-26T10:19:26.158Z,99658.26
2019-03-26T10:21:56.270Z,99661.73
2019-03-26T10:24:26.353Z,99658.94
2019-03-26T10:26:56.428Z,99657.93
2019-03-26T10:29:30.422Z,99666.11
2019-03-26T10:31:58.347Z,99662.70
2019-03-26T10:34:28.433Z,99660.92
2019-03-26T10:36:58.510Z,99657.75
2019-03-26T10:39:28.754Z,99654.67
2019-03-26T10:41:58.853Z,99664.59
2019-03-26T10:44:28.999Z,99661.55
2019-03-26T10:46:59.090Z,99653.00
2019-03-26T10:49:29.221Z,99663.55
2019-03-26T10:51:59.298Z,99664.63
2019-03-26T10:54:29.383Z,99679.22
2019-03-26T10:56:59.507Z,99663.30
2019-03-26T10:59:29.685Z,99665.86
2019-03-26T11:02:00.098Z,99673.69
2019-03-26T11:04:30.230Z,99671.23
2019-03-26T11:07:00.375Z,99679.22
2019-03-26T11:09:30.470Z,99678.45
2019-03-26T11:12:00.708Z,99677.17
2019-03-26T11:14:31.879Z,99680.62
2019-03-26T11:17:02.152Z,99679.72
2019-03-26T11:19:32.227Z,99687.22
2019-03-26T11:22:02.312Z,99678.49
2019-03-26T11:24:32.416Z,99682.28
2019-03-26T11:27:02.506Z,99679.19
2019-03-26T11:29:32.572Z,99683.81
2019-03-26T11:32:02.707Z,99676.72
2019-03-26T11:34:32.768Z,99689.45
2019-03-26T11:37:02.870Z,99688.44
2019-03-26T11:39:33.289Z,99688.94
2019-03-26T11:42:03.422Z,99699.67
2019-03-26T11:44:33.537Z,99693.20
2019-03-26T11:47:03.633Z,99703.48
2019-03-26T11:49:33.714Z,99696.70
2019-03-26T11:52:03.790Z,99695.86
2019-03-26T11:54:33.920Z,99704.71
2019-03-26T11:57:04.010Z,99710.87
2019-03-26T11:59:34.084Z,99711.10
2019-03-26T12:02:05.148Z,99718.81
2019-03-26T12:04:35.288Z,99718.31
2019-03-26T12:07:05.460Z,99721.52
2019-03-26T12:09:45.606Z,99727.68
2019-03-26T12:12:07.395Z,99730.50
2019-03-26T12:14:37.606Z,99732.77
2019-03-26T12:17:07.773Z,99732.19
2019-03-26T12:19:37.923Z,99728.04
2019-03-26T12:22:07.993Z,99740.31
2019-03-26T12:24:38.069Z,99738.56
2019-03-26T12:27:08.137Z,99748.10
2019-03-26T12:29:38.214Z,99750.31
2019-03-26T12:32:08.322Z,99759.72
2019-03-26T12:34:38.393Z,99755.78
2019-03-26T12:37:08.495Z,99761.71
2019-03-26T12:39:38.591Z,99769.61
2019-03-26T12:42:08.739Z,99766.91
2019-03-26T12:44:38.757Z,99762.21
2019-03-26T12:47:08.843Z,99767.98
2019-03-26T12:49:38.914Z,99769.38
2019-03-26T12:52:09.146Z,99764.53
2019-03-26T12:54:39.210Z,99768.48
2019-03-26T12:57:09.325Z,99768.47
2019-03-26T12:59:39.430Z,99781.60
2019-03-26T13:02:09.534Z,99778.48
2019-03-26T13:04:39.616Z,99783.08
2019-03-26T13:07:09.784Z,99777.15
2019-03-26T13:09:41.946Z,99781.38
2019-03-26T13:12:11.734Z,99785.72
2019-03-26T13:14:41.807Z,99784.31
2019-03-26T13:17:11.906Z,99791.81
2019-03-26T13:19:41.986Z,99795.45
2019-03-26T13:22:12.120Z,99798.58
2019-03-26T13:24:42.193Z,99804.00
2019-03-26T13:27:12.285Z,99796.69
2019-03-26T13:29:42.401Z,99808.08
2019-03-26T13:32:13.218Z,99809.09
2019-03-26T13:34:43.358Z,99815.98
2019-03-26T13:37:13.437Z,99825.23
2019-03-26T13:39:43.555Z,99819.27
2019-03-26T13:42:13.670Z,99825.47
2019-03-26T13:44:43.742Z,99829.56
2019-03-26T13:47:13.942Z,99834.63
2019-03-26T13:49:44.039Z,99833.70
2019-03-26T13:52:14.162Z,99836.09
2019-03-26T13:54:44.265Z,99844.21
2019-03-26T13:57:14.352Z,99842.54
2019-03-26T13:59:44.446Z,99838.16
2019-03-26T14:02:14.535Z,99841.71
2019-03-26T14:04:44.805Z,99848.06
2019-03-26T14:07:14.889Z,99845.56
2019-03-26T14:09:45.067Z,99846.09
2019-03-26T14:12:15.158Z,99850.39
2019-03-26T14:14:45.246Z,99850.78
2019-03-26T14:17:15.351Z,99854.25
2019-03-26T14:19:45.438Z,99852.97
2019-03-26T14:22:15.531Z,99845.99
2019-03-26T14:24:45.676Z,99841.61
2019-03-26T14:27:15.781Z,99845.84
2019-03-26T14:29:45.875Z,99845.38
2019-03-26T14:32:15.974Z,99838.27
2019-03-26T14:34:50.278Z,99844.87
2019-03-26T14:37:18.006Z,99838.12
2019-03-26T14:39:48.084Z,99838.99
2019-03-26T14:42:18.198Z,99838.50
2019-03-26T14:44:50.012Z,99841.19
2019-03-26T14:47:20.518Z,99848.46
2019-03-26T14:49:50.614Z,99843.95
2019-03-26T14:52:20.784Z,99846.92
2019-03-26T14:54:50.889Z,99858.69
2019-03-26T14:57:20.989Z,99857.71
2019-03-26T14:59:51.124Z,99855.98
2019-03-26T15:02:21.233Z,99856.44
2019-03-26T15:04:51.322Z,99856.95
2019-03-26T15:07:21.484Z,99859.38
2019-03-26T15:09:51.586Z,99864.08
2019-03-26T15:12:21.734Z,99870.05
2019-03-26T15:14:51.833Z,99871.78
2019-03-26T15:17:22.055Z,99881.31
2019-03-26T15:19:54.949Z,99878.53
2019-03-26T15:22:24.046Z,99875.31
2019-03-26T15:24:54.149Z,99882.66
2019-03-26T15:27:24.278Z,99881.74
2019-03-26T15:29:54.401Z,99886.97
2019-03-26T15:32:24.514Z,99886.80
2019-03-26T15:34:54.609Z,99890.70
2019-03-26T15:37:24.881Z,99893.91
2019-03-26T15:39:55.289Z,99894.94
2019-03-26T15:42:25.458Z,99907.20
2019-03-26T15:44:55.609Z,99909.83
2019-03-26T15:47:25.823Z,99914.72
2019-03-26T15:49:56.066Z,99912.93
2019-03-26T15:52:26.184Z,99913.55
2019-03-26T15:54:56.236Z,99916.93
2019-03-26T15:57:26.330Z,99919.84
2019-03-26T15:59:56.410Z,99918.74
2019-03-26T16:02:26.549Z,99920.52
2019-03-26T16:04:56.673Z,99919.71
2019-03-26T16:07:26.824Z,99926.69
2019-03-26T16:09:57.032Z,99929.59
2019-03-26T16:12:40.279Z,99931.68
2019-03-26T16:14:59.174Z,99921.33
2019-03-26T16:17:29.283Z,99931.83
2019-03-26T16:19:59.654Z,99940.59
2019-03-26T16:22:29.790Z,99938.98
2019-03-26T16:25:00.150Z,99946.08
2019-03-26T16:27:30.562Z,99950.09
2019-03-26T16:30:00.668Z,99957.73
2019-03-26T16:32:30.759Z,99957.91
2019-03-26T16:35:00.831Z,99962.52
2019-03-26T16:37:30.923Z,99965.56
2019-03-26T16:40:01.018Z,99967.35
2019-03-26T16:42:31.114Z,99972.66
2019-03-26T16:45:01.369Z,99980.95
2019-03-26T16:47:31.479Z,99989.56
2019-03-26T16:50:01.563Z,99981.34
2019-03-26T16:52:31.646Z,99986.92
2019-03-26T16:55:01.850Z,99984.23
2019-03-26T16:57:32.068Z,99989.14
2019-03-26T17:00:03.644Z,99993.20
2019-03-26T17:02:33.793Z,99991.36
2019-03-26T17:05:03.913Z,99999.25
2019-03-26T17:07:34.002Z,100007.98
2019-03-26T17:10:04.107Z,100003.78
2019-03-26T17:12:34.285Z,100006.64
2019-03-26T17:15:04.421Z,100004.28
2019-03-26T17:17:34.552Z,100009.18
2019-03-26T17:20:04.961Z,100015.39
2019-03-26T17:22:35.188Z,100019.92
2019-03-26T17:25:05.807Z,100024.45
2019-03-26T17:27:35.923Z,100021.12
2019-03-26T17:30:06.034Z,100020.78
2019-03-26T17:32:36.199Z,100022.44
2019-03-26T17:35:06.592Z,100029.17
2019-03-26T17:37:36.901Z,100027.16
2019-03-26T17:40:07.094Z,100034.22
2019-03-26T17:42:37.199Z,100032.53
2019-03-26T17:45:08.163Z,100037.91
2019-03-26T17:47:38.336Z,100038.75
2019-03-26T17:50:08.799Z,100041.26
2019-03-26T17:52:38.900Z,100054.69
2019-03-26T17:55:09.165Z,100048.16
2019-03-26T17:57:39.256Z,100055.20
2019-03-26T18:00:11.188Z,100057.72
2019-03-26T18:02:41.290Z,100052.67
2019-03-26T18:05:33.244Z,100052.17
2019-03-26T18:08:03.398Z,100056.38
2019-03-26T18:10:33.620Z,100049.83
2019-03-26T18:13:03.719Z,100054.02
2019-03-26T18:15:33.782Z,100053.70
2019-03-26T18:18:04.000Z,100043.96
2019-03-26T18:20:34.162Z,100040.61
2019-03-26T18:23:04.290Z,100048.47
2019-03-26T18:25:34.432Z,100044.64
2019-03-26T18:28:04.523Z,100047.65
2019-03-26T18:30:34.701Z,100047.97
2019-03-26T18:33:04.884Z,100051.16
2019-03-26T18:35:34.980Z,100053.67
2019-03-26T18:38:05.096Z,100054.34
2019-03-26T18:40:35.186Z,100055.19
2019-03-26T18:43:05.394Z,100058.03
2019-03-26T18:45:35.496Z,100060.70
2019-03-26T18:48:05.650Z,100066.42
2019-03-26T18:50:35.804Z,100066.77
2019-03-26T18:53:05.924Z,100062.89
2019-03-26T18:55:36.059Z,100070.44
2019-03-26T18:58:06.246Z,100066.77
2019-03-26T19:00:37.302Z,100066.24
2019-03-26T19:03:07.562Z,100073.95
2019-03-26T19:05:37.644Z,100080.48
2019-03-26T19:08:07.750Z,100079.80
2019-03-26T19:10:38.039Z,100084.80
2019-03-26T19:13:18.507Z,100084.31
2019-03-26T19:15:39.977Z,100081.79
2019-03-26T19:18:10.051Z,100081.77
2019-03-26T19:20:40.299Z,100083.45
2019-03-26T19:23:10.483Z,100082.80
2019-03-26T19:25:40.588Z,100086.12
2019-03-26T19:28:10.667Z,100089.66
2019-03-26T19:30:40.773Z,100094.17
2019-03-26T19:33:10.874Z,100096.05
2019-03-26T19:35:40.992Z,100100.59
2019-03-26T19:38:11.340Z,100102.74
2019-03-26T19:40:41.698Z,100105.27
2019-03-26T19:43:12.011Z,100106.11
2019-03-26T19:45:42.147Z,100114.31
2019-03-26T19:48:12.442Z,100114.34
2019-03-26T19:50:42.882Z,100119.39
2019-03-26T19:53:13.193Z,100112.50
2019-03-26T19:55:43.441Z,100115.34
2019-03-26T19:58:13.640Z,100106.95
2019-03-26T20:00:43.854Z,100106.93
2019-03-26T20:03:14.226Z,100101.59
2019-03-26T20:05:45.011Z,100104.75
2019-03-26T20:08:15.237Z,100111.27
2019-03-26T20:10:45.465Z,100111.77
2019-03-26T20:13:24.436Z,100117.80
2019-03-26T20:15:47.768Z,100121.66
2019-03-26T20:18:17.895Z,100123.34
2019-03-26T20:20:48.431Z,100117.95
2019-03-26T20:23:18.565Z,100122.94
2019-03-26T20:25:48.732Z,100122.09
2019-03-26T20:28:18.965Z,100125.28
2019-03-26T20:30:49.188Z,100119.57
2019-03-26T20:33:19.307Z,100123.06
2019-03-26T20:35:49.529Z,100123.91
2019-03-26T20:38:19.773Z,100126.12
2019-03-26T20:40:49.901Z,100124.63
2019-03-26T20:43:20.091Z,100125.62
2019-03-26T20:45:50.686Z,100123.25
2019-03-26T20:48:20.800Z,100126.59
2019-03-26T20:50:50.952Z,100128.27
2019-03-26T20:53:21.221Z,100129.11
2019-03-26T20:55:54.463Z,100122.06
2019-03-26T20:58:23.152Z,100126.93
2019-03-26T21:00:53.283Z,100129.95
2019-03-26T21:03:23.389Z,100127.95
2019-03-26T21:05:53.565Z,100131.30
2019-03-26T21:08:23.802Z,100134.63
2019-03-26T21:10:53.884Z,100134.78
2019-03-26T21:13:23.984Z,100128.92
2019-03-26T21:15:57.530Z,100140.14
2019-03-26T21:18:26.171Z,100145.05
2019-03-26T21:20:56.351Z,100147.88
2019-03-26T21:23:26.410Z,100151.09
2019-03-26T21:25:57.579Z,100154.62
2019-03-26T21:28:27.762Z,100159.10
2019-03-26T21:30:58.819Z,100159.41
2019-03-26T21:33:29.039Z,100156.08
2019-03-26T21:35:59.367Z,100155.58
2019-03-26T21:38:29.730Z,100159.45
2019-03-26T21:40:59.830Z,100156.73
2019-03-26T21:43:29.978Z,100158.41
2019-03-26T21:46:00.044Z,100160.41
2019-03-26T21:48:31.543Z,100161.70
2019-03-26T21:51:01.654Z,100168.41
2019-03-26T21:53:31.813Z,100161.02
2019-03-26T21:56:06.798Z,100162.16
2019-03-26T21:58:33.834Z,100159.32
2019-03-26T22:01:04.089Z,100159.33
2019-03-26T22:03:34.169Z,100163.34
2019-03-26T22:06:04.274Z,100168.55
2019-03-26T22:08:34.491Z,100167.75
2019-03-26T22:11:04.568Z,100175.49
2019-03-26T22:13:34.837Z,100178.17
2019-03-26T22:16:05.092Z,100186.56
2019-03-26T22:18:35.382Z,100177.52
2019-03-26T22:21:05.635Z,100169.30
2019-03-26T22:23:35.718Z,100169.14
2019-03-26T22:26:05.817Z,100169.33
2019-03-26T22:28:35.884Z,100166.30
2019-03-26T22:31:05.969Z,100168.18
2019-03-26T22:33:36.026Z,100163.81
2019-03-26T22:36:06.167Z,100168.18
2019-03-26T22:38:36.336Z,100168.18
2019-03-26T22:41:06.422Z,100166.84
2019-03-26T22:43:36.487Z,100165.16
2019-03-26T22:46:06.609Z,100168.48
2019-03-26T22:48:36.748Z,100167.03
2019-03-26T22:51:06.804Z,100167.53
2019-03-26T22:53:36.902Z,100169.06
2019-03-26T22:56:06.959Z,100170.09
2019-03-26T22:58:37.030Z,100173.42
2019-03-26T23:01:07.310Z,100169.75
2019-03-26T23:03:37.477Z,100170.94
2019-03-26T23:06:07.540Z,100165.87
2019-03-26T23:08:37.610Z,100173.42
2019-03-26T23:11:07.681Z,100170.90
2019-03-26T23:13:37.813Z,100171.09
2019-03-26T23:16:07.894Z,100172.30
2019-03-26T23:18:37.996Z,100173.14
2019-03-26T23:21:08.262Z,100172.64
2019-03-26T23:23:38.432Z,100166.28
2019-03-26T23:26:08.499Z,100169.66
2019-03-26T23:28:38.767Z,100180.88
2019-03-26T23:31:08.850Z,100173.33
2019-03-26T23:33:39.019Z,100174.36
2019-03-26T23:36:09.290Z,100169.69
2019-03-26T23:38:39.412Z,100173.70
2019-03-26T23:41:09.506Z,100166.00
2019-03-26T23:43:39.745Z,100169.87
2019-03-26T23:46:10.011Z,100174.23
2019-03-26T23:48:40.197Z,100173.39
2019-03-26T23:51:10.454Z,100171.86
2019-03-26T23:53:40.644Z,100175.76
2019-03-26T23:56:10.871Z,100169.70
2019-03-26T23:58:41.194Z,100170.89
